createdAt,value
2018-10-18T00:02:04.418Z,7.40
2018-10-18T00:07:32.164Z,7.40
2018-10-18T00:10:00.645Z,7.40
2018-10-18T00:12:29.147Z,7.30
2018-10-18T00:14:57.601Z,7.30
2018-10-18T00:17:31.450Z,7.40
2018-10-18T00:20:00.063Z,7.40
2018-10-18T00:22:28.494Z,7.30
2018-10-18T00:24:57.044Z,7.20
2018-10-18T00:27:25.552Z,7.20
2018-10-18T00:29:54.128Z,7.20
2018-10-18T00:32:22.598Z,7.20
2018-10-18T00:34:51.118Z,7.20
2018-10-18T00:37:19.632Z,7.20
2018-10-18T00:39:48.132Z,7.10
2018-10-18T00:42:16.695Z,7.10
2018-10-18T00:44:45.199Z,7.10
2018-10-18T00:47:13.718Z,7.30
2018-10-18T00:49:42.295Z,7.30
2018-10-18T00:52:10.803Z,7.10
2018-10-18T00:54:39.313Z,7.10
2018-10-18T00:57:07.857Z,7.10
2018-10-18T00:59:36.400Z,7.10
2018-10-18T01:02:05.063Z,7.10
2018-10-18T01:04:33.527Z,7.00
2018-10-18T01:07:02.122Z,7.00
2018-10-18T01:09:30.621Z,7.00
2018-10-18T01:11:59.280Z,7.00
2018-10-18T01:14:27.776Z,7.00
2018-10-18T01:17:04.874Z,6.90
2018-10-18T01:19:35.669Z,6.90
2018-10-18T01:22:05.543Z,6.80
2018-10-18T01:24:34.399Z,6.80
2018-10-18T01:27:02.956Z,6.80
2018-10-18T01:29:31.475Z,6.70
2018-10-18T01:32:00.293Z,6.70
2018-10-18T01:34:29.165Z,6.60
2018-10-18T01:36:57.707Z,6.70
2018-10-18T01:39:26.237Z,6.60
2018-10-18T01:41:54.750Z,6.60
2018-10-18T01:44:23.266Z,6.50
2018-10-18T01:46:52.036Z,6.50
2018-10-18T01:49:20.596Z,6.40
2018-10-18T01:51:49.067Z,6.40
2018-10-18T01:54:17.701Z,6.40
2018-10-18T01:56:46.123Z,6.30
2018-10-18T01:59:14.636Z,6.30
2018-10-18T02:01:43.129Z,6.40
2018-10-18T02:04:11.699Z,6.40
2018-10-18T02:06:40.188Z,6.30
2018-10-18T02:09:10.938Z,6.30
2018-10-18T02:11:39.548Z,6.30
2018-10-18T02:14:08.072Z,6.30
2018-10-18T02:16:36.803Z,6.40
2018-10-18T02:19:05.565Z,6.30
2018-10-18T02:21:34.068Z,6.30
2018-10-18T02:24:02.687Z,6.20
2018-10-18T02:26:31.189Z,6.20
2018-10-18T02:28:59.693Z,6.20
2018-10-18T02:31:28.190Z,6.20
2018-10-18T02:33:56.726Z,6.20
2018-10-18T02:36:25.215Z,6.10
2018-10-18T02:38:53.773Z,6.10
2018-10-18T02:41:22.272Z,6.00
2018-10-18T02:43:51.204Z,6.10
2018-10-18T02:46:19.690Z,6.00
2018-10-18T02:48:48.996Z,6.00
2018-10-18T02:51:17.751Z,6.00
2018-10-18T02:53:46.624Z,6.20
2018-10-18T02:56:15.204Z,6.20
2018-10-18T02:58:43.721Z,6.20
2018-10-18T03:01:12.247Z,6.20
2018-10-18T03:03:41.360Z,6.10
2018-10-18T03:06:09.880Z,6.10
2018-10-18T03:08:38.343Z,5.90
2018-10-18T03:11:06.955Z,5.90
2018-10-18T03:13:35.546Z,5.90
2018-10-18T03:16:04.206Z,6.00
2018-10-18T03:18:32.705Z,5.90
2018-10-18T03:21:01.193Z,5.90
2018-10-18T03:23:29.752Z,5.90
2018-10-18T03:25:58.281Z,5.90
2018-10-18T03:28:26.805Z,5.90
2018-10-18T03:30:55.307Z,5.80
2018-10-18T03:33:23.853Z,5.90
2018-10-18T03:35:52.382Z,5.80
2018-10-18T03:38:20.936Z,5.80
2018-10-18T03:40:49.480Z,5.70
2018-10-18T03:43:17.941Z,5.70
2018-10-18T03:45:46.491Z,5.90
2018-10-18T03:48:15.041Z,5.90
2018-10-18T03:50:43.554Z,5.90
2018-10-18T03:53:12.021Z,5.90
2018-10-18T03:55:40.584Z,5.90
2018-10-18T03:58:09.121Z,5.70
2018-10-18T04:00:37.573Z,5.70
2018-10-18T04:03:06.111Z,5.70
2018-10-18T04:05:34.607Z,5.60
2018-10-18T04:08:03.252Z,5.60
2018-10-18T04:10:31.827Z,5.60
2018-10-18T04:13:00.412Z,5.60
2018-10-18T04:15:28.915Z,5.70
2018-10-18T04:17:57.500Z,5.60
2018-10-18T04:20:26.012Z,5.50
2018-10-18T04:22:54.576Z,5.60
2018-10-18T04:25:23.044Z,5.80
2018-10-18T04:27:51.566Z,5.70
2018-10-18T04:30:20.084Z,5.60
2018-10-18T04:32:48.580Z,5.50
2018-10-18T04:35:17.055Z,5.50
2018-10-18T04:37:45.508Z,5.60
2018-10-18T04:40:14.137Z,5.60
2018-10-18T04:42:42.583Z,5.50
2018-10-18T04:45:11.178Z,5.50
2018-10-18T04:47:39.690Z,5.50
2018-10-18T04:50:08.872Z,5.50
2018-10-18T04:52:44.049Z,5.50
2018-10-18T04:55:12.577Z,5.40
2018-10-18T04:57:41.115Z,5.30
2018-10-18T05:00:09.656Z,5.30
2018-10-18T05:02:38.690Z,5.30
2018-10-18T05:05:18.512Z,5.30
2018-10-18T05:07:46.981Z,5.20
2018-10-18T05:10:15.512Z,5.40
2018-10-18T05:12:44.184Z,5.30
2018-10-18T05:15:12.518Z,5.30
2018-10-18T05:17:41.016Z,5.20
2018-10-18T05:20:09.613Z,5.20
2018-10-18T05:22:38.250Z,5.20
2018-10-18T05:25:06.861Z,5.20
2018-10-18T05:27:35.301Z,5.20
2018-10-18T05:30:03.835Z,5.20
2018-10-18T05:32:32.320Z,5.20
2018-10-18T05:35:00.801Z,5.30
2018-10-18T05:37:29.354Z,5.30
2018-10-18T05:39:57.812Z,5.20
2018-10-18T05:42:26.313Z,5.10
2018-10-18T05:44:54.794Z,5.20
2018-10-18T05:47:23.367Z,5.10
2018-10-18T05:49:51.882Z,5.20
2018-10-18T05:52:20.380Z,5.20
2018-10-18T05:54:48.834Z,5.10
2018-10-18T05:57:17.382Z,5.10
2018-10-18T05:59:52.545Z,5.10
2018-10-18T06:02:21.088Z,5.10
2018-10-18T06:04:49.549Z,5.20
2018-10-18T06:07:18.180Z,5.20
2018-10-18T06:09:46.685Z,5.20
2018-10-18T06:12:15.201Z,5.20
2018-10-18T06:14:43.667Z,5.30
2018-10-18T06:17:12.205Z,5.30
2018-10-18T06:19:40.766Z,5.50
2018-10-18T06:22:09.291Z,5.50
2018-10-18T06:24:38.008Z,5.70
2018-10-18T06:27:06.544Z,5.80
2018-10-18T06:29:35.024Z,5.90
2018-10-18T06:32:04.847Z,5.90
2018-10-18T06:34:33.334Z,6.00
2018-10-18T06:37:01.806Z,6.10
2018-10-18T06:39:30.324Z,6.20
2018-10-18T06:41:59.173Z,6.30
2018-10-18T06:44:27.716Z,6.40
2018-10-18T06:46:56.277Z,6.50
2018-10-18T06:49:24.797Z,6.50
2018-10-18T06:51:53.298Z,6.60
2018-10-18T06:54:21.860Z,6.70
2018-10-18T06:56:50.644Z,6.80
2018-10-18T06:59:19.238Z,7.10
2018-10-18T07:01:47.790Z,7.20
2018-10-18T07:04:16.309Z,7.40
2018-10-18T07:06:44.800Z,7.50
2018-10-18T07:09:13.304Z,7.80
2018-10-18T07:11:41.824Z,7.90
2018-10-18T07:14:10.347Z,8.00
2018-10-18T07:16:38.851Z,8.20
2018-10-18T07:19:07.374Z,8.40
2018-10-18T07:21:35.866Z,8.70
2018-10-18T07:24:04.471Z,8.80
2018-10-18T07:26:32.954Z,9.20
2018-10-18T07:29:01.483Z,9.50
2018-10-18T07:31:30.159Z,9.70
2018-10-18T07:33:58.749Z,9.90
2018-10-18T07:36:27.340Z,10.10
2018-10-18T07:38:55.818Z,10.40
2018-10-18T07:41:24.356Z,10.70
2018-10-18T07:43:52.863Z,10.90
2018-10-18T07:46:21.383Z,11.00
2018-10-18T07:48:49.846Z,11.00
2018-10-18T07:51:18.320Z,11.10
2018-10-18T07:53:46.845Z,11.10
2018-10-18T07:56:15.450Z,11.10
2018-10-18T07:58:44.006Z,11.20
2018-10-18T08:01:12.505Z,11.10
2018-10-18T08:03:41.090Z,11.00
2018-10-18T08:06:09.678Z,10.90
2018-10-18T08:08:38.257Z,10.80
2018-10-18T08:11:06.846Z,10.70
2018-10-18T08:13:35.376Z,10.80
2018-10-18T08:16:03.901Z,11.00
2018-10-18T08:18:32.494Z,11.10
2018-10-18T08:21:01.003Z,11.30
2018-10-18T08:23:29.645Z,11.50
2018-10-18T08:25:58.282Z,11.60
2018-10-18T08:28:26.748Z,11.80
2018-10-18T08:30:55.361Z,11.90
2018-10-18T08:33:25.143Z,12.00
2018-10-18T08:35:54.029Z,12.20
2018-10-18T08:38:23.209Z,12.40
2018-10-18T08:40:51.883Z,12.60
2018-10-18T08:43:21.625Z,12.90
2018-10-18T08:45:50.477Z,13.10
2018-10-18T08:48:19.194Z,13.30
2018-10-18T08:50:47.884Z,13.50
2018-10-18T08:53:16.743Z,13.70
2018-10-18T08:55:45.255Z,13.90
2018-10-18T08:58:14.333Z,14.10
2018-10-18T09:00:43.115Z,14.30
2018-10-18T09:03:11.651Z,14.50
2018-10-18T09:05:40.707Z,14.70
2018-10-18T09:08:09.200Z,14.80
2018-10-18T09:10:37.712Z,15.10
2018-10-18T09:13:06.240Z,15.20
2018-10-18T09:15:34.828Z,15.20
2018-10-18T09:18:03.443Z,15.10
2018-10-18T09:20:31.898Z,15.00
2018-10-18T09:23:00.418Z,15.10
2018-10-18T09:25:28.906Z,15.00
2018-10-18T09:27:57.462Z,15.10
2018-10-18T09:30:26.036Z,15.10
2018-10-18T09:32:54.601Z,15.40
2018-10-18T09:35:23.167Z,15.40
2018-10-18T09:37:51.660Z,15.60
2018-10-18T09:40:20.260Z,15.80
2018-10-18T09:42:48.814Z,16.00
2018-10-18T09:45:17.312Z,16.10
2018-10-18T09:47:45.861Z,16.30
2018-10-18T09:50:14.459Z,16.60
2018-10-18T09:52:42.923Z,16.80
2018-10-18T09:55:12.674Z,16.80
2018-10-18T09:57:41.313Z,17.00
2018-10-18T10:00:15.232Z,17.10
2018-10-18T10:02:51.143Z,17.10
2018-10-18T10:05:20.539Z,17.30
2018-10-18T10:07:49.028Z,17.50
2018-10-18T10:10:17.564Z,17.90
2018-10-18T10:12:46.062Z,18.00
2018-10-18T10:15:14.547Z,17.80
2018-10-18T10:17:43.129Z,18.10
2018-10-18T10:20:11.610Z,18.40
2018-10-18T10:22:40.195Z,18.50
2018-10-18T10:25:08.775Z,18.70
2018-10-18T10:27:37.528Z,18.50
2018-10-18T10:30:06.781Z,18.70
2018-10-18T10:32:35.396Z,18.80
2018-10-18T10:35:04.249Z,18.70
2018-10-18T10:37:32.773Z,18.40
2018-10-18T10:40:01.329Z,18.70
2018-10-18T10:42:29.890Z,19.20
2018-10-18T10:44:58.424Z,18.90
2018-10-18T10:47:26.975Z,18.60
2018-10-18T10:49:55.514Z,18.40
2018-10-18T10:52:24.089Z,18.40
2018-10-18T10:54:52.575Z,18.50
2018-10-18T10:57:21.103Z,19.00
2018-10-18T10:59:50.483Z,18.90
2018-10-18T11:02:18.967Z,19.00
2018-10-18T11:04:47.480Z,19.00
2018-10-18T11:07:15.994Z,19.20
2018-10-18T11:09:44.638Z,19.30
2018-10-18T11:12:13.074Z,19.10
2018-10-18T11:14:41.680Z,18.90
2018-10-18T11:17:10.191Z,18.70
2018-10-18T11:19:38.798Z,18.40
2018-10-18T11:22:07.847Z,18.40
2018-10-18T11:24:36.644Z,18.10
2018-10-18T11:27:05.223Z,18.00
2018-10-18T11:29:33.892Z,18.00
2018-10-18T11:32:02.546Z,18.20
2018-10-18T11:34:31.117Z,18.30
2018-10-18T11:36:59.625Z,18.00
2018-10-18T11:39:28.248Z,18.10
2018-10-18T11:41:56.968Z,17.90
2018-10-18T11:44:43.054Z,18.10
2018-10-18T11:47:12.450Z,18.00
2018-10-18T11:49:41.692Z,18.40
2018-10-18T11:52:10.363Z,18.50
2018-10-18T11:54:38.989Z,18.70
2018-10-18T11:57:07.558Z,18.70
2018-10-18T11:59:36.094Z,18.90
2018-10-18T12:02:05.496Z,19.10
2018-10-18T12:04:34.012Z,19.00
2018-10-18T12:07:02.596Z,19.10
2018-10-18T12:09:31.222Z,18.70
2018-10-18T12:11:59.757Z,18.80
2018-10-18T12:14:28.355Z,18.50
2018-10-18T12:16:56.949Z,18.30
2018-10-18T12:19:25.542Z,18.20
2018-10-18T12:21:54.152Z,17.60
2018-10-18T12:24:22.733Z,17.70
2018-10-18T12:26:51.362Z,17.60
2018-10-18T12:29:20.001Z,17.60
2018-10-18T12:31:48.523Z,17.30
2018-10-18T12:34:17.073Z,17.40
2018-10-18T12:36:45.684Z,17.20
2018-10-18T12:39:14.272Z,17.00
2018-10-18T12:41:42.998Z,16.80
2018-10-18T12:44:11.556Z,16.90
2018-10-18T12:46:40.049Z,16.60
2018-10-18T12:49:08.642Z,16.70
2018-10-18T12:51:37.400Z,16.80
2018-10-18T12:54:06.693Z,16.70
2018-10-18T12:56:35.333Z,16.60
2018-10-18T12:59:04.025Z,16.50
2018-10-18T13:01:32.592Z,16.50
2018-10-18T13:04:01.071Z,16.30
2018-10-18T13:06:29.559Z,16.20
2018-10-18T13:08:58.183Z,16.30
2018-10-18T13:11:26.750Z,16.30
2018-10-18T13:13:55.452Z,16.10
2018-10-18T13:16:24.221Z,16.10
2018-10-18T13:18:52.810Z,15.90
2018-10-18T13:21:21.387Z,15.90
2018-10-18T13:23:49.994Z,16.00
2018-10-18T13:26:18.622Z,15.90
2018-10-18T13:28:47.469Z,15.70
2018-10-18T13:31:15.986Z,15.60
2018-10-18T13:33:44.570Z,15.50
2018-10-18T13:36:13.218Z,15.30
2018-10-18T13:38:42.140Z,15.20
2018-10-18T13:41:10.666Z,15.10
2018-10-18T13:43:39.433Z,15.10
2018-10-18T13:46:07.992Z,15.20
2018-10-18T13:48:36.619Z,15.30
2018-10-18T13:51:05.480Z,15.40
2018-10-18T13:53:37.861Z,15.30
2018-10-18T13:56:06.497Z,15.10
2018-10-18T13:58:35.052Z,15.10
2018-10-18T14:01:03.649Z,15.00
2018-10-18T14:03:32.186Z,15.10
2018-10-18T14:06:00.924Z,15.10
2018-10-18T14:08:29.696Z,15.10
2018-10-18T14:10:58.171Z,15.20
2018-10-18T14:13:26.811Z,15.10
2018-10-18T14:15:55.503Z,15.10
2018-10-18T14:18:24.011Z,15.10
2018-10-18T14:20:52.628Z,15.10
2018-10-18T14:23:21.182Z,15.00
2018-10-18T14:25:49.705Z,15.10
2018-10-18T14:28:18.494Z,15.10
2018-10-18T14:30:47.121Z,15.10
2018-10-18T14:33:15.595Z,15.10
2018-10-18T14:35:44.139Z,15.10
2018-10-18T14:38:12.765Z,15.10
2018-10-18T14:40:41.258Z,15.00
2018-10-18T14:43:09.836Z,14.80
2018-10-18T14:45:38.385Z,14.90
2018-10-18T14:48:07.021Z,14.90
2018-10-18T14:50:35.861Z,14.90
2018-10-18T14:53:04.648Z,14.90
2018-10-18T14:55:33.502Z,14.90
2018-10-18T14:58:02.298Z,14.90
2018-10-18T15:00:30.856Z,14.90
2018-10-18T15:02:59.471Z,14.90
2018-10-18T15:05:28.072Z,14.80
2018-10-18T15:07:56.686Z,14.70
2018-10-18T15:10:25.309Z,14.60
2018-10-18T15:12:53.813Z,14.60
2018-10-18T15:15:22.418Z,14.60
2018-10-18T15:17:50.976Z,14.60
2018-10-18T15:20:19.622Z,14.60
2018-10-18T15:22:48.213Z,14.70
2018-10-18T15:25:17.019Z,14.70
2018-10-18T15:27:45.774Z,14.60
2018-10-18T15:30:14.149Z,14.60
2018-10-18T15:32:42.694Z,14.50
2018-10-18T15:35:12.133Z,14.50
2018-10-18T15:37:41.999Z,14.50
2018-10-18T15:40:10.625Z,14.40
2018-10-18T15:42:39.238Z,14.40
2018-10-18T15:45:08.206Z,14.40
2018-10-18T15:47:36.772Z,14.40
2018-10-18T15:50:06.860Z,14.40
2018-10-18T15:52:35.535Z,14.40
2018-10-18T15:55:04.280Z,14.30
2018-10-18T15:57:32.919Z,14.30
2018-10-18T16:00:01.437Z,14.30
2018-10-18T16:02:30.076Z,14.30
2018-10-18T16:04:58.712Z,14.30
2018-10-18T16:07:27.281Z,14.20
2018-10-18T16:09:55.836Z,14.20
2018-10-18T16:12:24.460Z,14.20
2018-10-18T16:14:53.841Z,14.20
2018-10-18T16:17:22.439Z,14.20
2018-10-18T16:19:51.116Z,14.20
2018-10-18T16:22:19.674Z,14.20
2018-10-18T16:24:48.217Z,14.20
2018-10-18T16:27:16.727Z,14.10
2018-10-18T16:29:45.201Z,14.10
2018-10-18T16:32:13.842Z,14.10
2018-10-18T16:34:42.395Z,14.00
2018-10-18T16:37:10.922Z,14.00
2018-10-18T16:39:39.531Z,14.00
2018-10-18T16:42:08.120Z,14.00
2018-10-18T16:44:36.619Z,14.00
2018-10-18T16:47:05.443Z,14.00
2018-10-18T16:49:34.357Z,13.90
2018-10-18T16:52:02.943Z,13.90
2018-10-18T16:54:31.497Z,13.90
2018-10-18T16:57:00.085Z,13.90
2018-10-18T16:59:28.724Z,13.90
2018-10-18T17:01:57.252Z,13.80
2018-10-18T17:04:25.889Z,13.80
2018-10-18T17:06:54.377Z,13.80
2018-10-18T17:09:22.946Z,13.80
2018-10-18T17:11:51.598Z,13.70
2018-10-18T17:14:20.235Z,13.70
2018-10-18T17:16:48.763Z,13.70
2018-10-18T17:19:17.437Z,13.70
2018-10-18T17:21:45.986Z,13.70
2018-10-18T17:24:14.783Z,13.70
2018-10-18T17:26:43.521Z,13.70
2018-10-18T17:29:11.922Z,13.70
2018-10-18T17:31:40.494Z,13.60
2018-10-18T17:34:09.236Z,13.70
2018-10-18T17:36:37.782Z,13.60
2018-10-18T17:39:08.691Z,13.60
2018-10-18T17:41:37.201Z,13.60
2018-10-18T17:44:06.542Z,13.60
2018-10-18T17:46:35.146Z,13.60
2018-10-18T17:49:03.788Z,13.60
2018-10-18T17:51:32.370Z,13.50
2018-10-18T17:54:00.901Z,13.50
2018-10-18T17:56:29.551Z,13.50
2018-10-18T17:58:58.016Z,13.50
2018-10-18T18:01:26.622Z,13.40
2018-10-18T18:03:55.223Z,13.40
2018-10-18T18:06:24.048Z,13.40
2018-10-18T18:08:52.496Z,13.30
2018-10-18T18:11:21.076Z,13.30
2018-10-18T18:13:49.643Z,13.40
2018-10-18T18:16:18.341Z,13.30
2018-10-18T18:18:46.841Z,13.30
2018-10-18T18:21:15.390Z,13.30
2018-10-18T18:23:44.127Z,13.30
2018-10-18T18:26:13.373Z,13.30
2018-10-18T18:28:41.922Z,13.30
2018-10-18T18:31:10.530Z,13.30
2018-10-18T18:33:39.360Z,13.20
2018-10-18T18:36:08.239Z,13.20
2018-10-18T18:38:39.714Z,13.20
2018-10-18T18:41:08.267Z,13.10
2018-10-18T18:43:36.872Z,13.10
2018-10-18T18:46:05.478Z,13.10
2018-10-18T18:48:33.983Z,13.10
2018-10-18T18:51:02.546Z,13.10
2018-10-18T18:53:31.333Z,13.00
2018-10-18T18:55:59.928Z,13.00
2018-10-18T18:58:28.660Z,13.00
2018-10-18T19:00:57.254Z,13.00
2018-10-18T19:03:25.757Z,13.00
2018-10-18T19:05:54.388Z,13.00
2018-10-18T19:08:23.023Z,12.90
2018-10-18T19:10:51.697Z,12.90
2018-10-18T19:13:20.306Z,12.90
2018-10-18T19:15:48.886Z,12.90
2018-10-18T19:18:20.577Z,12.80
2018-10-18T19:20:49.272Z,12.90
2018-10-18T19:23:18.047Z,12.80
2018-10-18T19:25:46.760Z,12.80
2018-10-18T19:28:15.257Z,12.80
2018-10-18T19:30:43.924Z,12.80
2018-10-18T19:33:12.496Z,12.80
2018-10-18T19:35:41.110Z,12.70
2018-10-18T19:38:09.748Z,12.70
2018-10-18T19:40:38.273Z,12.70
2018-10-18T19:43:06.874Z,12.70
2018-10-18T19:45:35.536Z,12.70
2018-10-18T19:48:04.146Z,12.70
2018-10-18T19:50:32.689Z,12.70
2018-10-18T19:53:02.207Z,12.60
2018-10-18T19:55:30.742Z,12.60
2018-10-18T19:57:59.283Z,12.60
2018-10-18T20:00:27.878Z,12.60
2018-10-18T20:02:56.459Z,12.60
2018-10-18T20:05:25.089Z,12.60
2018-10-18T20:07:53.779Z,12.60
2018-10-18T20:10:22.284Z,12.50
2018-10-18T20:12:50.870Z,12.50
2018-10-18T20:15:19.437Z,12.50
2018-10-18T20:17:47.945Z,12.50
2018-10-18T20:20:16.531Z,12.40
2018-10-18T20:22:45.073Z,12.40
2018-10-18T20:25:13.596Z,12.40
2018-10-18T20:27:42.338Z,12.40
2018-10-18T20:30:13.834Z,12.40
2018-10-18T20:32:42.769Z,12.40
2018-10-18T20:35:11.834Z,12.30
2018-10-18T20:37:40.919Z,12.30
2018-10-18T20:40:12.132Z,12.30
2018-10-18T20:42:41.018Z,12.30
2018-10-18T20:45:13.808Z,12.30
2018-10-18T20:47:42.845Z,12.30
2018-10-18T20:50:11.711Z,12.30
2018-10-18T20:52:40.270Z,12.30
2018-10-18T20:55:09.286Z,12.30
2018-10-18T20:57:37.829Z,12.30
2018-10-18T21:00:07.439Z,12.30
2018-10-18T21:02:35.897Z,12.20
2018-10-18T21:05:04.517Z,12.20
2018-10-18T21:07:33.066Z,12.20
2018-10-18T21:10:01.644Z,12.20
2018-10-18T21:12:30.236Z,12.20
2018-10-18T21:14:59.009Z,12.20
2018-10-18T21:17:27.497Z,12.20
2018-10-18T21:19:56.105Z,12.20
2018-10-18T21:22:24.685Z,12.20
2018-10-18T21:24:53.274Z,12.20
2018-10-18T21:27:21.892Z,12.20
2018-10-18T21:29:50.481Z,12.20
2018-10-18T21:32:18.966Z,12.10
2018-10-18T21:34:47.589Z,12.10
2018-10-18T21:37:16.124Z,12.10
2018-10-18T21:39:44.586Z,12.10
2018-10-18T21:42:13.170Z,12.10
2018-10-18T21:44:41.859Z,12.10
2018-10-18T21:47:10.769Z,12.00
2018-10-18T21:49:39.288Z,12.00
2018-10-18T21:52:07.827Z,12.00
2018-10-18T21:54:36.416Z,12.00
2018-10-18T21:57:05.853Z,12.00
2018-10-18T21:59:34.391Z,12.00
2018-10-18T22:02:03.012Z,12.00
2018-10-18T22:04:31.505Z,11.90
2018-10-18T22:07:00.192Z,11.90
2018-10-18T22:09:28.761Z,11.90
2018-10-18T22:11:57.327Z,11.90
2018-10-18T22:14:26.057Z,11.90
2018-10-18T22:16:54.486Z,11.90
2018-10-18T22:19:23.035Z,11.90
2018-10-18T22:21:51.665Z,11.80
2018-10-18T22:24:20.241Z,11.80
2018-10-18T22:26:48.791Z,11.80
2018-10-18T22:29:17.437Z,11.80
2018-10-18T22:31:45.961Z,11.80
2018-10-18T22:34:14.516Z,11.80
2018-10-18T22:36:43.006Z,11.70
2018-10-18T22:39:12.169Z,11.70
2018-10-18T22:41:41.081Z,11.70
2018-10-18T22:44:10.430Z,11.60
2018-10-18T22:46:39.001Z,11.60
2018-10-18T22:49:07.575Z,11.60
2018-10-18T22:51:36.246Z,11.60
2018-10-18T22:54:05.349Z,11.50
2018-10-18T22:56:34.017Z,11.50
2018-10-18T22:59:02.617Z,11.50
2018-10-18T23:01:31.109Z,11.40
2018-10-18T23:03:59.742Z,11.40
2018-10-18T23:06:28.225Z,11.40
2018-10-18T23:08:56.780Z,11.40
2018-10-18T23:11:25.328Z,11.40
2018-10-18T23:13:53.828Z,11.30
2018-10-18T23:16:22.405Z,11.30
2018-10-18T23:18:50.896Z,11.20
2018-10-18T23:21:19.469Z,11.20
2018-10-18T23:23:47.981Z,11.20
2018-10-18T23:26:16.566Z,11.20
2018-10-18T23:28:45.050Z,11.10
2018-10-18T23:31:13.509Z,11.10
2018-10-18T23:33:42.040Z,11.10
2018-10-18T23:36:10.542Z,11.00
2018-10-18T23:38:39.034Z,11.00
2018-10-18T23:41:07.742Z,11.00
2018-10-18T23:43:36.366Z,11.00
2018-10-18T23:46:05.123Z,10.90
2018-10-18T23:48:33.619Z,10.90
2018-10-18T23:51:02.209Z,10.80
2018-10-18T23:53:30.692Z,10.80
2018-10-18T23:55:59.206Z,10.80
2018-10-18T23:58:27.740Z,10.80
